Time;durP1;ratioP1;P1;durP2;ratioP2;P2;SDS_P1;SDS_P2;PMS_P1;PMS_P2;Temp;Humidity;BMP_temperature;BMP_pressure;BME280_temperature;BME280_humidity;BME280_pressure;Samples;Min_cycle;Max_cycle;Signal;HPM_P1;HPM_P2
2023/11/23 00:02:39;;;;;;;45.40;17.80;;;;;;;1.85;100.00;99602.98;67689;1280;1016704;-69
2023/11/23 00:05:42;;;;;;;46.40;18.10;;;;;;;1.87;100.00;99591.22;67667;1281;1016735;-69
2023/11/23 00:08:44;;;;;;;41.90;17.20;;;;;;;1.93;100.00;99571.65;67680;1280;1016553;-69
2023/11/23 00:11:47;;;;;;;44.20;17.70;;;;;;;2.00;100.00;99566.91;67628;1280;1016469;-69
2023/11/23 00:14:51;;;;;;;44.90;18.00;;;;;;;2.05;100.00;99557.16;67675;1281;1016486;-69
2023/11/23 00:17:54;;;;;;;42.30;17.70;;;;;;;2.06;100.00;99554.91;67639;1280;1016441;-68
2023/11/23 00:20:57;;;;;;;40.60;17.00;;;;;;;2.10;100.00;99553.83;67703;1280;1016374;-69
2023/11/23 00:24:00;;;;;;;41.50;16.50;;;;;;;2.19;100.00;99550.06;67620;1280;1016159;-69
2023/11/23 00:27:03;;;;;;;37.20;16.20;;;;;;;2.24;100.00;99532.73;67614;1280;1016516;-69
2023/11/23 00:30:06;;;;;;;41.60;17.90;;;;;;;2.32;100.00;99508.61;67654;1280;1018170;-69
2023/11/23 00:33:09;;;;;;;43.80;19.30;;;;;;;2.21;100.00;99510.01;67634;1280;1016291;-69
2023/11/23 00:36:13;;;;;;;44.80;18.50;;;;;;;2.05;100.00;99500.92;67643;1280;1016288;-69
2023/11/23 00:39:16;;;;;;;46.30;19.60;;;;;;;1.99;100.00;99487.04;67653;1280;1018692;-69
2023/11/23 00:42:18;;;;;;;50.80;18.60;;;;;;;1.83;100.00;99480.22;67692;1280;1016387;-69
2023/11/23 00:45:21;;;;;;;42.20;16.90;;;;;;;1.61;100.00;99478.12;67649;1281;1016313;-69
2023/11/23 00:48:23;;;;;;;46.20;19.40;;;;;;;1.75;100.00;99479.65;67610;1280;1016473;-69
2023/11/23 00:51:27;;;;;;;45.50;19.70;;;;;;;1.76;100.00;99474.98;67662;1280;1016608;-68
2023/11/23 00:54:30;;;;;;;46.10;19.60;;;;;;;1.73;100.00;99471.04;67664;1280;1016263;-68
2023/11/23 00:57:34;;;;;;;45.90;18.50;;;;;;;1.61;100.00;99465.35;67683;1280;1016079;-69
2023/11/23 01:00:37;;;;;;;55.70;22.70;;;;;;;1.74;100.00;99458.11;67680;1280;1016465;-69
2023/11/23 01:03:39;;;;;;;54.70;21.70;;;;;;;1.59;100.00;99445.56;67649;1280;1016013;-68
2023/11/23 01:06:42;;;;;;;52.40;22.40;;;;;;;1.53;100.00;99437.03;67637;1280;1016410;-69
2023/11/23 01:09:45;;;;;;;56.00;23.50;;;;;;;1.52;100.00;99437.05;67677;1280;1016062;-69
2023/11/23 01:12:48;;;;;;;;;;;;;;;1.67;100.00;99434.59;67640;1280;1016423;-68
2023/11/23 01:15:53;;;;;;;57.20;23.30;;;;;;;1.53;100.00;99439.26;67660;1280;1016161;-69
2023/11/23 01:18:55;;;;;;;58.60;24.30;;;;;;;1.56;100.00;99433.03;67662;1280;1016626;-69
2023/11/23 01:21:58;;;;;;;54.90;22.90;;;;;;;1.55;100.00;99428.36;67646;1280;1016583;-69
2023/11/23 01:25:00;;;;;;;53.70;22.50;;;;;;;1.44;100.00;99411.46;67619;1281;1016124;-69
2023/11/23 01:28:03;;;;;;;55.50;23.20;;;;;;;1.43;100.00;99407.36;67625;1280;1016292;-69
2023/11/23 01:31:05;;;;;;;51.10;23.00;;;;;;;1.43;100.00;99406.84;67664;1280;1018682;-69
2023/11/23 01:34:08;;;;;;;56.90;24.20;;;;;;;1.52;100.00;99408.95;67619;1280;1016331;-68
2023/11/23 01:37:10;;;;;;;53.40;22.60;;;;;;;1.56;100.00;99398.72;67636;1280;1016434;-69
2023/11/23 01:40:13;;;;;;;47.40;21.20;;;;;;;1.65;100.00;99383.92;67667;1280;1016307;-68
2023/11/23 01:43:16;;;;;;;51.00;22.20;;;;;;;1.66;100.00;99374.27;67651;1280;1015949;-69
2023/11/23 01:46:18;;;;;;;47.10;20.60;;;;;;;1.63;100.00;99369.46;64315;1279;8455353;-67
2023/11/23 01:49:21;;;;;;;49.50;20.30;;;;;;;1.62;100.00;99359.83;67670;1280;1016378;-69
2023/11/23 01:52:23;;;;;;;;;;;;;;;1.74;100.00;99359.81;67679;1280;1016203;-69
2023/11/23 01:55:26;;;;;;;50.20;19.60;;;;;;;1.80;100.00;99360.59;67627;1280;1016496;-69
2023/11/23 01:58:29;;;;;;;;;;;;;;;1.71;100.00;99352.27;67642;1280;1016097;-67
2023/11/23 02:01:32;;;;;;;53.80;20.80;;;;;;;1.69;100.00;99354.55;67665;1280;1016379;-68
2023/11/23 02:04:34;;;;;;;50.50;20.60;;;;;;;1.63;100.00;99338.61;67616;1280;1016435;-69
2023/11/23 02:07:37;;;;;;;48.00;19.20;;;;;;;1.70;100.00;99328.16;67651;1280;1016460;-69
2023/11/23 02:10:40;;;;;;;45.40;19.30;;;;;;;1.84;100.00;99327.23;67690;1280;1016229;-68
2023/11/23 02:13:43;;;;;;;;;;;;;;;1.86;100.00;99319.42;67666;1280;1016428;-69
2023/11/23 02:16:46;;;;;;;45.60;18.80;;;;;;;1.89;100.00;99319.20;67679;1280;1016399;-69
2023/11/23 02:19:48;;;;;;;48.20;18.50;;;;;;;1.75;100.00;99325.31;67636;1280;1016451;-69
2023/11/23 02:22:51;;;;;;;46.00;16.60;;;;;;;1.78;100.00;99325.59;67645;1280;1016760;-69
2023/11/23 02:25:56;;;;;;;44.50;17.30;;;;;;;1.85;100.00;99324.96;67671;1280;1018608;-69
2023/11/23 02:28:59;;;;;;;44.80;17.60;;;;;;;2.01;100.00;99314.67;67633;1280;1016050;-69
2023/11/23 02:32:05;;;;;;;46.40;18.70;;;;;;;1.97;100.00;99314.40;67672;1280;1016340;-67
2023/11/23 02:35:08;;;;;;;45.30;19.00;;;;;;;2.02;100.00;99305.16;67695;1280;1016492;-69
2023/11/23 02:38:11;;;;;;;45.60;17.60;;;;;;;1.96;100.00;99299.42;67676;1280;1016336;-69
2023/11/23 02:41:13;;;;;;;42.80;17.60;;;;;;;2.01;100.00;99300.36;67641;1280;1016477;-69
2023/11/23 02:44:16;;;;;;;46.10;17.50;;;;;;;2.09;100.00;99302.44;67678;1280;1016503;-69
2023/11/23 02:47:18;;;;;;;44.30;17.50;;;;;;;2.12;100.00;99297.58;67655;1280;1017192;-69
2023/11/23 02:50:21;;;;;;;42.20;17.80;;;;;;;2.24;100.00;99291.99;67689;1280;1016434;-69
2023/11/23 02:53:30;;;;;;;43.20;17.50;;;;;;;2.32;100.00;99280.80;67660;1280;1016432;-69
2023/11/23 02:56:33;;;;;;;43.70;17.50;;;;;;;2.32;100.00;99278.35;67679;1280;1016337;-69
2023/11/23 02:59:35;;;;;;;42.70;17.10;;;;;;;2.41;100.00;99278.35;67692;1280;1016711;-69
2023/11/23 03:02:38;;;;;;;;;;;;;;;2.38;100.00;99270.84;67634;1280;1016497;-69
2023/11/23 03:05:43;;;;;;;48.70;20.20;;;;;;;2.53;100.00;99259.98;67653;1280;1016112;-69
2023/11/23 03:08:46;;;;;;;41.10;17.60;;;;;;;2.53;100.00;99251.52;67645;1280;1016441;-69
2023/11/23 03:11:49;;;;;;;42.30;19.20;;;;;;;2.31;100.00;99248.02;67666;1280;1018580;-69
2023/11/23 03:14:51;;;;;;;42.40;17.60;;;;;;;2.18;100.00;99243.44;67688;1280;1016248;-69
2023/11/23 03:17:54;;;;;;;47.20;17.70;;;;;;;2.25;100.00;99232.27;67679;1280;1016514;-69
2023/11/23 03:20:56;;;;;;;43.50;17.00;;;;;;;2.15;100.00;99228.66;67656;1280;1017645;-69
2023/11/23 03:23:59;;;;;;;;;;;;;;;2.08;100.00;99227.26;67668;1280;1016410;-69
2023/11/23 03:27:01;;;;;;;42.00;17.20;;;;;;;2.01;100.00;99221.00;67690;1280;1016499;-69
2023/11/23 03:30:06;;;;;;;44.00;16.40;;;;;;;2.07;100.00;99219.15;67598;1280;1016309;-69
2023/11/23 03:33:08;;;;;;;45.30;17.90;;;;;;;2.16;100.00;99219.16;67640;1280;1016545;-69
2023/11/23 03:36:11;;;;;;;45.40;17.80;;;;;;;2.21;100.00;99213.55;67648;1280;1016902;-69
2023/11/23 03:39:14;;;;;;;44.70;18.90;;;;;;;2.34;100.00;99204.81;67652;1280;1016397;-69
2023/11/23 03:42:16;;;;;;;39.90;17.00;;;;;;;2.36;100.00;99195.27;67591;1280;1016464;-69
2023/11/23 03:45:21;;;;;;;;;;;;;;;2.33;100.00;99190.85;67687;1280;1016425;-69
2023/11/23 03:48:23;;;;;;;42.20;17.80;;;;;;;2.34;100.00;99178.58;67651;1280;1015745;-69
2023/11/23 03:51:26;;;;;;;45.20;17.00;;;;;;;2.25;100.00;99173.92;67662;1280;1016333;-69
2023/11/23 03:54:28;;;;;;;44.00;17.40;;;;;;;2.21;100.00;99164.69;67650;1280;1016091;-69
2023/11/23 03:57:31;;;;;;;42.40;18.10;;;;;;;2.18;100.00;99162.34;67642;1280;1016462;-69
2023/11/23 04:00:34;;;;;;;45.30;17.70;;;;;;;2.15;100.00;99152.76;67668;1280;1016548;-69
2023/11/23 04:03:37;;;;;;;46.50;19.50;;;;;;;2.13;100.00;99151.60;67633;1280;1016399;-69
2023/11/23 04:06:40;;;;;;;45.60;19.50;;;;;;;2.04;100.00;99138.66;67667;1280;1016473;-69
2023/11/23 04:09:43;;;;;;;41.80;18.10;;;;;;;2.05;100.00;99132.94;67620;1280;1016432;-68
2023/11/23 04:12:45;;;;;;;43.90;18.90;;;;;;;2.35;100.00;99130.73;67651;1280;1016508;-69
2023/11/23 04:15:49;;;;;;;40.20;17.70;;;;;;;2.36;100.00;99123.80;67621;1280;1016403;-69
2023/11/23 04:18:51;;;;;;;46.90;19.70;;;;;;;2.35;100.00;99122.98;67672;1280;1018933;-68
2023/11/23 04:21:54;;;;;;;44.40;19.30;;;;;;;2.44;100.00;99110.52;67655;1280;1016380;-69
2023/11/23 04:24:56;;;;;;;52.70;19.20;;;;;;;2.46;100.00;99112.88;67645;1280;1016470;-69
2023/11/23 04:27:59;;;;;;;50.40;19.90;;;;;;;2.46;100.00;99102.88;67649;1280;1016919;-69
2023/11/23 04:31:03;;;;;;;45.90;19.00;;;;;;;2.49;100.00;99087.77;67651;1280;1016763;-69
2023/11/23 04:34:05;;;;;;;47.20;20.50;;;;;;;2.62;100.00;99084.38;67647;1280;1016382;-69
2023/11/23 04:37:08;;;;;;;;;;;;;;;2.69;100.00;99067.78;67682;1280;1016177;-69
2023/11/23 04:40:10;;;;;;;49.00;21.80;;;;;;;2.70;100.00;99053.78;67680;1280;1016425;-69
2023/11/23 04:43:13;;;;;;;48.70;19.90;;;;;;;2.70;100.00;99041.36;67578;1280;1016502;-69
2023/11/23 04:46:16;;;;;;;46.20;20.30;;;;;;;2.73;100.00;99032.63;67688;1280;1016325;-69
2023/11/23 04:49:39;;;;;;;;;;;;;;;2.82;100.00;99032.41;67657;1280;1016395;-69
2023/11/23 04:52:41;;;;;;;47.70;19.00;;;;;;;2.74;100.00;99031.06;67647;1280;1016286;-69
2023/11/23 04:55:44;;;;;;;44.60;18.80;;;;;;;2.30;100.00;99025.40;67684;1280;1016359;-69
2023/11/23 04:58:47;;;;;;;53.80;21.60;;;;;;;2.19;100.00;99019.29;67685;1280;1016396;-68
2023/11/23 05:01:49;;;;;;;47.30;19.90;;;;;;;2.54;100.00;99007.75;67658;1280;1016284;-69
2023/11/23 05:04:52;;;;;;;45.60;18.70;;;;;;;2.69;100.00;99011.50;67641;1280;1016415;-69
2023/11/23 05:07:54;;;;;;;44.80;18.40;;;;;;;2.66;100.00;99001.04;67652;1280;1016479;-69
2023/11/23 05:10:57;;;;;;;46.30;18.80;;;;;;;2.64;100.00;98994.86;67679;1257;1016324;-69
2023/11/23 05:13:59;;;;;;;45.30;19.30;;;;;;;2.70;100.00;98985.39;67630;1280;1016416;-69
2023/11/23 05:17:02;;;;;;;44.10;17.00;;;;;;;2.82;100.00;98977.81;67648;1280;1016390;-69
2023/11/23 05:20:05;;;;;;;48.30;19.20;;;;;;;2.74;100.00;98974.05;67668;1280;1016451;-70
2023/11/23 05:23:07;;;;;;;47.30;18.40;;;;;;;2.74;100.00;98963.71;67682;1280;1016395;-69
2023/11/23 05:26:10;;;;;;;44.60;18.40;;;;;;;2.90;100.00;98948.05;67659;1280;1016523;-69
2023/11/23 05:29:12;;;;;;;47.40;19.60;;;;;;;2.96;100.00;98938.92;67647;1280;1016331;-69
2023/11/23 05:32:15;;;;;;;46.90;18.40;;;;;;;2.72;100.00;98928.53;67660;1280;1016941;-69
2023/11/23 05:35:17;;;;;;;41.00;17.70;;;;;;;2.81;100.00;98917.94;67689;1280;1016396;-69
2023/11/23 05:38:20;;;;;;;44.40;18.10;;;;;;;2.84;100.00;98911.48;67646;1280;1016356;-69
2023/11/23 05:41:22;;;;;;;45.40;17.40;;;;;;;2.87;100.00;98905.14;67628;1280;1015989;-68
2023/11/23 05:44:25;;;;;;;43.10;17.50;;;;;;;2.90;100.00;98899.20;67646;1280;1016096;-69
2023/11/23 05:47:28;;;;;;;42.50;17.20;;;;;;;2.86;100.00;98898.27;67666;1280;1016328;-70
2023/11/23 05:50:30;;;;;;;43.00;17.80;;;;;;;2.88;100.00;98890.25;67647;1280;1015878;-69
2023/11/23 05:53:33;;;;;;;46.50;18.40;;;;;;;2.99;100.00;98893.05;67630;1280;1016460;-70
2023/11/23 05:56:35;;;;;;;41.50;16.20;;;;;;;3.05;100.00;98896.49;67657;1280;1018121;-68
2023/11/23 05:59:38;;;;;;;41.70;16.80;;;;;;;3.00;100.00;98894.92;67656;1280;1016906;-69
2023/11/23 06:02:41;;;;;;;44.60;15.70;;;;;;;2.92;100.00;98894.48;67632;1280;1016286;-69
2023/11/23 06:05:43;;;;;;;44.20;18.00;;;;;;;2.95;100.00;98883.17;67668;1280;1016485;-68
2023/11/23 06:08:46;;;;;;;42.50;17.50;;;;;;;3.04;100.00;98880.64;67677;1280;1016463;-69
2023/11/23 06:11:49;;;;;;;44.30;17.40;;;;;;;3.06;100.00;98873.14;67644;1280;1016366;-69
2023/11/23 06:14:52;;;;;;;43.60;17.30;;;;;;;3.10;100.00;98871.83;67683;1280;1016497;-68
2023/11/23 06:17:54;;;;;;;41.30;17.00;;;;;;;3.24;100.00;98862.95;67674;1280;1017686;-69
2023/11/23 06:20:57;;;;;;;44.00;16.80;;;;;;;3.31;100.00;98858.08;67640;1280;1016401;-69
2023/11/23 06:24:00;;;;;;;;;;;;;;;3.35;100.00;98849.14;67663;1280;1018616;-69
2023/11/23 06:27:02;;;;;;;42.90;17.40;;;;;;;3.38;100.00;98839.34;67708;1280;1016256;-69
2023/11/23 06:30:05;;;;;;;39.40;14.80;;;;;;;3.41;100.00;98842.21;67684;1280;1016492;-69
2023/11/23 06:33:08;;;;;;;43.90;16.30;;;;;;;3.43;100.00;98831.74;67675;1280;1016520;-69
2023/11/23 06:36:11;;;;;;;44.00;16.00;;;;;;;3.39;100.00;98827.22;67698;1280;1016107;-70
2023/11/23 06:39:14;;;;;;;59.40;23.70;;;;;;;3.39;100.00;98822.73;67676;1280;1016417;-69
2023/11/23 06:42:24;;;;;;;57.90;23.60;;;;;;;3.43;100.00;98818.95;67651;1280;1016896;-69
2023/11/23 06:45:26;;;;;;;49.90;18.60;;;;;;;3.43;100.00;98810.66;67669;1280;1016326;-70
2023/11/23 06:48:29;;;;;;;;;;;;;;;3.52;100.00;98793.80;67706;1280;1019484;-69
2023/11/23 06:51:31;;;;;;;54.80;20.90;;;;;;;3.58;100.00;98780.79;67627;1280;1016424;-69
2023/11/23 06:54:34;;;;;;;44.70;17.70;;;;;;;3.49;100.00;98771.91;67675;1280;1016822;-68
2023/11/23 06:57:39;;;;;;;60.50;22.00;;;;;;;3.61;100.00;98771.86;67690;1280;1016514;-70
2023/11/23 07:00:42;;;;;;;56.00;21.20;;;;;;;3.58;100.00;98751.25;67637;1280;1016425;-69
2023/11/23 07:03:45;;;;;;;56.80;21.40;;;;;;;3.63;100.00;98763.85;67670;1280;1016357;-69
2023/11/23 07:06:49;;;;;;;64.40;23.40;;;;;;;3.68;100.00;98752.78;67655;1280;1016416;-70
2023/11/23 07:09:52;;;;;;;46.50;17.70;;;;;;;3.73;100.00;98749.17;67665;1280;1016451;-70
2023/11/23 07:12:54;;;;;;;51.10;19.70;;;;;;;3.82;100.00;98751.64;67646;1280;1016454;-68
2023/11/23 07:15:59;;;;;;;47.10;18.10;;;;;;;3.90;100.00;98740.10;67684;1280;1016424;-68
2023/11/23 07:19:02;;;;;;;53.50;20.80;;;;;;;4.00;100.00;98737.32;67709;1280;1016228;-70
2023/11/23 07:22:04;;;;;;;;;;;;;;;4.15;100.00;98732.83;67657;1280;1016346;-68
2023/11/23 07:25:08;;;;;;;38.90;14.10;;;;;;;4.00;100.00;98725.39;67683;1280;1016877;-69
2023/11/23 07:28:11;;;;;;;43.80;17.40;;;;;;;4.03;100.00;98723.06;67661;1280;1016388;-70
2023/11/23 07:31:14;;;;;;;46.80;18.00;;;;;;;4.19;100.00;98722.79;67681;1280;1016343;-70
2023/11/23 07:34:16;;;;;;;43.90;17.30;;;;;;;4.29;100.00;98708.08;67677;1280;1015700;-69
2023/11/23 07:37:19;;;;;;;40.20;16.30;;;;;;;4.30;100.00;98715.66;67694;1280;1016454;-69
2023/11/23 07:40:22;;;;;;;43.90;16.00;;;;;;;4.22;100.00;98715.09;67676;1280;1016364;-70
2023/11/23 07:43:24;;;;;;;40.20;14.90;;;;;;;4.16;100.00;98703.69;67673;1280;1017064;-70
2023/11/23 07:46:27;;;;;;;43.50;17.60;;;;;;;4.19;100.00;98704.45;67715;1280;1016374;-69
2023/11/23 07:49:30;;;;;;;44.30;16.20;;;;;;;4.24;100.00;98704.45;67707;1280;1016238;-68
2023/11/23 07:52:32;;;;;;;;;;;;;;;4.28;100.00;98706.55;67664;1280;1016407;-70
2023/11/23 07:55:35;;;;;;;44.70;15.60;;;;;;;4.36;100.00;98694.83;67639;1280;1016281;-70
2023/11/23 07:58:37;;;;;;;43.70;17.10;;;;;;;4.42;100.00;98690.27;67703;1280;1016428;-70
2023/11/23 08:01:40;;;;;;;40.80;16.70;;;;;;;4.53;100.00;98681.20;67691;1280;1016676;-70
2023/11/23 08:04:42;;;;;;;41.90;15.00;;;;;;;4.63;100.00;98673.01;67659;1280;1016138;-69
2023/11/23 08:07:46;;;;;;;40.20;14.00;;;;;;;4.69;100.00;98658.75;67666;1280;1016432;-70
2023/11/23 08:10:48;;;;;;;42.20;16.50;;;;;;;4.71;100.00;98663.53;67684;1280;1016092;-70
2023/11/23 08:13:51;;;;;;;38.10;14.30;;;;;;;4.71;100.00;98665.06;67661;1280;1016645;-70
2023/11/23 08:16:54;;;;;;;43.90;17.40;;;;;;;4.82;100.00;98663.27;67670;1280;1016482;-70
2023/11/23 08:19:57;;;;;;;38.90;16.00;;;;;;;4.78;100.00;98657.02;67654;1280;1016307;-70
2023/11/23 08:23:00;;;;;;;45.20;18.60;;;;;;;4.86;100.00;98653.92;67693;1280;1016219;-70
2023/11/23 08:26:03;;;;;;;43.40;16.40;;;;;;;4.92;100.00;98653.70;67655;1280;1016902;-70
2023/11/23 08:29:06;;;;;;;51.30;19.50;;;;;;;5.01;100.00;98658.86;67689;1280;1016617;-70
2023/11/23 08:32:09;;;;;;;45.40;17.40;;;;;;;4.93;100.00;98661.45;67664;1280;1016306;-70
2023/11/23 08:35:12;;;;;;;43.40;15.70;;;;;;;5.02;100.00;98657.08;67643;1280;1016663;-70
2023/11/23 08:38:15;;;;;;;42.40;16.60;;;;;;;4.90;100.00;98656.73;67659;1280;1018398;-70
2023/11/23 08:41:25;;;;;;;43.40;17.10;;;;;;;5.03;100.00;98648.37;67700;1280;1016422;-69
2023/11/23 08:44:30;;;;;;;44.00;17.20;;;;;;;5.08;100.00;98647.84;67720;1280;1015792;-70
2023/11/23 08:47:32;;;;;;;42.40;15.60;;;;;;;5.12;100.00;98637.24;67691;1280;1016110;-69
2023/11/23 08:50:35;;;;;;;42.30;16.60;;;;;;;4.98;100.00;98649.81;67645;1280;1016490;-70
2023/11/23 08:53:37;;;;;;;41.70;14.90;;;;;;;4.94;100.00;98647.39;67658;1280;1016236;-70
2023/11/23 08:56:40;;;;;;;39.40;15.50;;;;;;;5.01;100.00;98645.34;67724;1280;1016365;-70
2023/11/23 08:59:43;;;;;;;39.90;15.60;;;;;;;5.07;100.00;98629.85;67690;1280;1016507;-70
2023/11/23 09:02:47;;;;;;;40.90;15.80;;;;;;;5.17;100.00;98625.80;67659;1280;1016292;-70
2023/11/23 09:05:49;;;;;;;47.10;17.20;;;;;;;5.01;100.00;98615.02;67641;1280;1016430;-70
2023/11/23 09:08:52;;;;;;;47.40;17.10;;;;;;;5.20;100.00;98604.01;67686;1280;1018187;-70
2023/11/23 09:11:55;;;;;;;37.70;15.20;;;;;;;5.14;100.00;98601.48;67722;1280;1016221;-70
2023/11/23 09:14:57;;;;;;;46.70;16.80;;;;;;;5.03;100.00;98594.47;67666;1280;1015812;-70
2023/11/23 09:18:00;;;;;;;40.50;15.30;;;;;;;5.19;100.00;98592.07;67676;1280;1016479;-70
2023/11/23 09:21:03;;;;;;;37.00;13.90;;;;;;;5.21;100.00;98585.91;67725;1280;1016335;-69
2023/11/23 09:24:08;;;;;;;41.50;15.90;;;;;;;5.25;100.00;98578.48;67656;1279;1016421;-69
2023/11/23 09:27:12;;;;;;;37.10;15.00;;;;;;;5.36;100.00;98579.73;67650;1280;1016472;-70
2023/11/23 09:30:15;;;;;;;39.60;15.70;;;;;;;5.32;100.00;98575.73;67688;1280;1016239;-69
2023/11/23 09:33:18;;;;;;;36.10;14.00;;;;;;;5.28;100.00;98569.84;67660;1280;1016405;-69
2023/11/23 09:36:20;;;;;;;40.30;16.40;;;;;;;5.28;100.00;98560.86;67691;1280;1016394;-69
2023/11/23 09:39:23;;;;;;;40.20;14.90;;;;;;;5.28;100.00;98560.16;67694;1280;1016781;-70
2023/11/23 09:42:26;;;;;;;;;;;;;;;5.33;100.00;98545.73;67694;1280;1016270;-69
2023/11/23 09:45:29;;;;;;;40.70;15.70;;;;;;;5.44;100.00;98540.88;67689;1280;1016084;-70
2023/11/23 09:48:31;;;;;;;37.00;14.50;;;;;;;5.44;100.00;98555.61;67655;1280;1015984;-70
2023/11/23 09:51:35;;;;;;;39.00;15.40;;;;;;;5.48;100.00;98549.39;67638;1280;1016227;-70
2023/11/23 09:54:38;;;;;;;37.40;14.50;;;;;;;5.54;100.00;98538.71;67650;1280;1016888;-69
2023/11/23 09:57:40;;;;;;;35.50;13.70;;;;;;;5.63;100.00;98530.48;67691;1280;1016430;-70
2023/11/23 10:00:43;;;;;;;35.70;13.80;;;;;;;5.63;100.00;98524.96;67704;1280;1016496;-70
2023/11/23 10:03:45;;;;;;;37.80;14.70;;;;;;;5.72;100.00;98508.23;67664;1280;1016472;-70
2023/11/23 10:06:48;;;;;;;36.60;13.70;;;;;;;5.70;100.00;98501.38;67661;1280;1016136;-68
2023/11/23 10:09:51;;;;;;;39.30;15.30;;;;;;;5.77;100.00;98495.18;67697;1280;1015950;-69
2023/11/23 10:12:53;;;;;;;;;;;;;;;5.86;100.00;98485.17;67677;1280;1016443;-70
2023/11/23 10:15:56;;;;;;;35.60;14.40;;;;;;;5.85;100.00;98477.77;67629;1280;1016195;-70
2023/11/23 10:19:01;;;;;;;36.00;14.50;;;;;;;5.99;100.00;98463.79;67699;1280;1016378;-70
2023/11/23 10:22:03;;;;;;;37.70;15.30;;;;;;;6.06;100.00;98459.46;67677;1280;1016303;-69
2023/11/23 10:25:06;;;;;;;38.00;14.30;;;;;;;6.16;100.00;98451.36;67655;1280;1018349;-70
2023/11/23 10:28:08;;;;;;;35.10;14.50;;;;;;;6.27;100.00;98443.52;67683;1280;1016212;-69
2023/11/23 10:31:11;;;;;;;36.50;13.60;;;;;;;6.29;100.00;98428.48;67685;1280;1018081;-69
2023/11/23 10:34:15;;;;;;;37.40;14.10;;;;;;;6.36;100.00;98430.20;67647;1280;1018039;-70
2023/11/23 10:37:18;;;;;;;39.10;15.80;;;;;;;6.35;100.00;98420.37;67628;1280;1016572;-69
2023/11/23 10:40:21;;;;;;;35.70;13.30;;;;;;;6.53;100.00;98405.04;67701;1280;1015908;-70
2023/11/23 10:43:23;;;;;;;34.60;14.00;;;;;;;6.48;100.00;98391.05;67662;1280;1016313;-70
2023/11/23 10:46:26;;;;;;;34.50;13.50;;;;;;;6.25;100.00;98370.20;67668;1280;1018563;-70
2023/11/23 10:49:30;;;;;;;35.70;13.30;;;;;;;6.24;100.00;98374.70;67676;1280;1016194;-70
2023/11/23 10:52:33;;;;;;;35.70;12.50;;;;;;;6.46;100.00;98372.93;67679;1280;1016320;-69
2023/11/23 10:55:35;;;;;;;33.70;12.60;;;;;;;6.42;100.00;98366.18;67694;1280;1016442;-70
2023/11/23 10:58:38;;;;;;;34.60;14.20;;;;;;;6.67;100.00;98361.94;67658;1280;1016408;-70
2023/11/23 11:01:40;;;;;;;;;;;;;;;6.67;100.00;98350.46;67734;1280;1016205;-70
2023/11/23 11:04:43;;;;;;;31.30;12.30;;;;;;;6.72;100.00;98345.19;67682;1280;1017170;-70
2023/11/23 11:07:45;;;;;;;32.10;13.20;;;;;;;6.74;100.00;98345.58;67656;1280;1016534;-70
2023/11/23 11:10:51;;;;;;;33.50;12.80;;;;;;;6.68;100.00;98350.41;67638;1280;1015982;-70
2023/11/23 11:13:54;;;;;;;33.90;11.10;;;;;;;6.65;100.00;98328.52;67670;1280;1016242;-70
2023/11/23 11:16:57;;;;;;;33.40;12.60;;;;;;;6.64;100.00;98358.63;67687;1280;1016466;-70
2023/11/23 11:19:59;;;;;;;36.60;15.20;;;;;;;6.74;100.00;98328.73;67690;1280;1016456;-69
2023/11/23 11:23:02;;;;;;;35.20;11.70;;;;;;;6.76;100.00;98330.15;67653;1280;1016344;-70
2023/11/23 11:26:04;;;;;;;30.30;10.80;;;;;;;6.83;100.00;98324.98;67692;1280;1016385;-69
2023/11/23 11:29:08;;;;;;;35.10;14.20;;;;;;;6.97;100.00;98304.73;67703;1280;1016104;-70
2023/11/23 11:32:11;;;;;;;33.20;11.80;;;;;;;7.02;100.00;98293.70;67684;1280;1016425;-70
2023/11/23 11:35:14;;;;;;;29.70;11.20;;;;;;;7.09;100.00;98288.96;67651;1279;1016478;-70
2023/11/23 11:38:16;;;;;;;30.20;12.00;;;;;;;7.17;100.00;98282.80;67669;1280;1016377;-68
2023/11/23 11:41:19;;;;;;;29.40;11.30;;;;;;;7.30;100.00;98279.83;67675;1280;1017064;-70
2023/11/23 11:44:21;;;;;;;32.20;12.40;;;;;;;7.35;100.00;98274.67;67678;1280;1016072;-70
2023/11/23 11:47:24;;;;;;;30.30;12.00;;;;;;;7.34;100.00;98266.69;67688;1280;1016353;-69
2023/11/23 11:50:27;;;;;;;30.90;12.40;;;;;;;7.39;100.00;98273.20;67649;1280;1016416;-69
2023/11/23 11:53:29;;;;;;;28.20;9.90;;;;;;;7.50;100.00;98267.01;67670;1280;1016167;-70
2023/11/23 11:56:32;;;;;;;32.10;12.60;;;;;;;7.63;100.00;98267.85;67707;1280;1016504;-70
2023/11/23 11:59:35;;;;;;;31.90;11.80;;;;;;;7.66;100.00;98271.52;67658;1280;1016482;-70
2023/11/23 12:02:38;;;;;;;31.10;11.30;;;;;;;7.71;100.00;98251.70;67640;1280;1016227;-69
2023/11/23 12:05:41;;;;;;;31.40;11.80;;;;;;;7.75;100.00;98243.28;67669;1280;1016450;-70
2023/11/23 12:08:44;;;;;;;33.70;13.20;;;;;;;7.78;100.00;98242.25;67677;1280;1016184;-69
2023/11/23 12:11:48;;;;;;;35.30;13.70;;;;;;;7.83;100.00;98254.02;67683;1280;1016929;-70
2023/11/23 12:14:53;;;;;;;33.90;12.30;;;;;;;7.89;100.00;98242.98;67694;1280;1016267;-70
2023/11/23 12:17:57;;;;;;;33.00;12.10;;;;;;;7.85;100.00;98244.11;67709;1280;1017035;-69
2023/11/23 12:21:04;;;;;;;37.60;13.00;;;;;;;7.86;100.00;98242.45;67701;1280;1018678;-68
2023/11/23 12:24:06;;;;;;;;;;;;;;;7.87;100.00;98249.58;67693;1280;1016380;-69
2023/11/23 12:27:10;;;;;;;32.20;11.20;;;;;;;7.78;100.00;98260.84;67705;1280;1016492;-70
2023/11/23 12:30:15;;;;;;;33.00;12.80;;;;;;;7.77;100.00;98249.27;67693;1280;1016242;-70
2023/11/23 12:33:17;;;;;;;34.20;14.20;;;;;;;7.70;100.00;98258.40;67607;1280;1016424;-69
2023/11/23 12:36:20;;;;;;;34.00;14.00;;;;;;;7.65;100.00;98228.23;67677;1280;1016410;-69
2023/11/23 12:39:22;;;;;;;34.10;13.70;;;;;;;7.81;100.00;98236.17;67686;1280;1016307;-69
2023/11/23 12:42:25;;;;;;;34.80;14.60;;;;;;;7.79;100.00;98226.86;67684;1280;1016230;-70
2023/11/23 12:45:27;;;;;;;32.70;12.80;;;;;;;7.69;100.00;98210.77;67654;1280;1015734;-69
2023/11/23 12:48:30;;;;;;;29.90;12.40;;;;;;;7.54;100.00;98234.93;67629;1280;1019420;-69
2023/11/23 12:51:33;;;;;;;36.50;14.10;;;;;;;7.60;100.00;98194.26;67698;1280;1016508;-69
2023/11/23 12:54:35;;;;;;;28.70;9.90;;;;;;;7.70;100.00;98190.14;67682;1280;1016075;-69
2023/11/23 12:57:38;;;;;;;31.80;12.20;;;;;;;7.67;100.00;98186.88;67636;1280;1016835;-70
2023/11/23 13:00:41;;;;;;;;;;;;;;;7.72;100.00;98181.52;67678;1280;1018664;-70
2023/11/23 13:03:44;;;;;;;31.10;12.30;;;;;;;7.70;100.00;98193.27;67633;1280;1016360;-69
2023/11/23 13:06:46;;;;;;;30.80;11.80;;;;;;;7.83;100.00;98159.81;67647;1280;1016426;-69
2023/11/23 13:09:49;;;;;;;30.50;10.70;;;;;;;7.89;100.00;98175.42;67709;1280;1016514;-68
2023/11/23 13:12:54;;;;;;;33.40;12.70;;;;;;;7.91;100.00;98150.60;67644;1280;1016098;-69
2023/11/23 13:15:57;;;;;;;32.00;12.50;;;;;;;7.85;100.00;98151.70;67680;1280;1016305;-69
2023/11/23 13:19:00;;;;;;;31.90;12.70;;;;;;;7.77;100.00;98128.84;67681;1280;1016589;-69
2023/11/23 13:22:02;;;;;;;;;;;;;;;7.69;100.00;98130.86;67691;1280;1016349;-69
2023/11/23 13:25:05;;;;;;;31.40;11.10;;;;;;;7.64;100.00;98119.00;67674;1280;1016631;-69
2023/11/23 13:28:08;;;;;;;27.50;10.40;;;;;;;7.72;100.00;98112.23;67664;1280;1016469;-69
2023/11/23 13:31:11;;;;;;;29.70;11.00;;;;;;;7.71;100.00;98097.02;67698;1280;1015919;-69
2023/11/23 13:34:14;;;;;;;30.60;11.30;;;;;;;7.64;100.00;98080.70;67746;1280;1016143;-68
2023/11/23 13:37:19;;;;;;;30.20;10.70;;;;;;;7.51;100.00;98089.50;67706;1280;1015840;-69
2023/11/23 13:40:23;;;;;;;30.60;11.20;;;;;;;7.43;100.00;98094.66;67655;1280;1016987;-69
2023/11/23 13:43:26;;;;;;;31.00;11.10;;;;;;;7.68;100.00;98072.46;67658;1280;1016353;-68
2023/11/23 13:46:32;;;;;;;27.70;10.00;;;;;;;7.69;100.00;98084.38;65204;1280;5375953;-69
2023/11/23 13:49:34;;;;;;;29.80;11.10;;;;;;;7.71;100.00;98086.56;67683;1280;1016245;-69